CYNM

Details ICAO CYNM (YNM)
Name MATAGAMI
Region Canada
Timezone America/Montreal (UTC-5.0)
Plans Departing 5
Arriving 6
Stats Elevation 918 ft / 280 m (AMSL)
Location 49.761691° -77.802504°
Runways 1
Magnetic Variation 13.489° W
Sunrise 2017-12-13 13:02:01 UTC / 2017-12-13 08:02:01 Local
Sunset 2017-12-13 21:11:50 UTC / 2017-12-13 16:11:50 Local
Advertisement - Login to hide

Runways

ID Width Length Bearing (true) Bearing (mag) Surface Threshold Offset Overrun Length
15 100 ft / 30 m 4,993 ft / 1,522 m 134.24° 147.73° Asphalt 0 ft / 0 m 0 ft / 0 m
33 100 ft / 30 m 4,993 ft / 1,522 m 314.25° 327.74° Asphalt 0 ft / 0 m 0 ft / 0 m

Map

Weather


0- 5 10 15 20 25 30 35+ Temperature / ° C

Clouds and Precipitation
Forecast for 2017-12-14 00:00 UTC. Updated an hour ago

Ground ~20,000 ft ~40,000 ft Winds

METAR

CYNM 132000Z AUTO 32016G27KT 9SM CLR M19/M23 A2955 RMK ICG SLP041

TAF

Not found

Frequencies

Recorded 127.45 MHz AWOS
Unicom 122.80 MHz CTAF/UNICOM
Warning: Do not use this data for real-world aviation or navigation. No guarantee of current accuracy is given.